sensor_id;sensor_type;location;lat;lon;timestamp;temperature;humidity
4727;DHT22;2377;51.734;8.950;2023-04-03T00:00:53;2.30;1.00
4727;DHT22;2377;51.734;8.950;2023-04-03T00:03:20;2.20;1.00
4727;DHT22;2377;51.734;8.950;2023-04-03T00:05:48;2.20;1.00
4727;DHT22;2377;51.734;8.950;2023-04-03T00:08:15;2.20;1.00
4727;DHT22;2377;51.734;8.950;2023-04-03T00:10:43;2.10;1.00
4727;DHT22;2377;51.734;8.950;2023-04-03T00:13:11;2.10;1.00
4727;DHT22;2377;51.734;8.950;2023-04-03T00:15:38;2.10;1.00
4727;DHT22;2377;51.734;8.950;2023-04-03T00:18:06;2.00;1.00
4727;DHT22;2377;51.734;8.950;2023-04-03T00:20:34;2.00;1.00
4727;DHT22;2377;51.734;8.950;2023-04-03T00:23:01;2.00;1.00
4727;DHT22;2377;51.734;8.950;2023-04-03T00:25:29;2.00;1.00
4727;DHT22;2377;51.734;8.950;2023-04-03T00:27:57;2.00;1.00
4727;DHT22;2377;51.734;8.950;2023-04-03T00:30:24;2.00;1.00
4727;DHT22;2377;51.734;8.950;2023-04-03T00:32:51;1.90;1.00
4727;DHT22;2377;51.734;8.950;2023-04-03T00:35:20;1.90;1.00
4727;DHT22;2377;51.734;8.950;2023-04-03T00:37:50;1.80;1.00
4727;DHT22;2377;51.734;8.950;2023-04-03T00:40:20;1.80;1.00
4727;DHT22;2377;51.734;8.950;2023-04-03T00:42:51;1.80;1.00
4727;DHT22;2377;51.734;8.950;2023-04-03T00:45:39;1.80;1.00
4727;DHT22;2377;51.734;8.950;2023-04-03T00:48:09;1.80;1.00
4727;DHT22;2377;51.734;8.950;2023-04-03T00:50:41;1.80;1.00
4727;DHT22;2377;51.734;8.950;2023-04-03T00:53:13;1.70;1.00
4727;DHT22;2377;51.734;8.950;2023-04-03T00:55:44;1.60;1.00
4727;DHT22;2377;51.734;8.950;2023-04-03T00:58:15;1.60;1.00
4727;DHT22;2377;51.734;8.950;2023-04-03T01:00:46;1.60;1.00
4727;DHT22;2377;51.734;8.950;2023-04-03T01:03:17;1.60;1.00
4727;DHT22;2377;51.734;8.950;2023-04-03T01:05:44;1.50;1.00
4727;DHT22;2377;51.734;8.950;2023-04-03T01:08:11;1.50;1.00
4727;DHT22;2377;51.734;8.950;2023-04-03T01:10:38;1.50;1.00
4727;DHT22;2377;51.734;8.950;2023-04-03T01:13:19;1.50;1.00
4727;DHT22;2377;51.734;8.950;2023-04-03T01:15:51;1.40;1.00
4727;DHT22;2377;51.734;8.950;2023-04-03T01:18:18;1.40;1.00
4727;DHT22;2377;51.734;8.950;2023-04-03T01:24:15;1.30;1.00
4727;DHT22;2377;51.734;8.950;2023-04-03T01:26:51;1.30;1.00
4727;DHT22;2377;51.734;8.950;2023-04-03T01:29:18;1.30;1.00
4727;DHT22;2377;51.734;8.950;2023-04-03T01:31:49;1.10;1.00
4727;DHT22;2377;51.734;8.950;2023-04-03T01:34:17;1.20;1.00
4727;DHT22;2377;51.734;8.950;2023-04-03T01:36:44;1.10;1.00
4727;DHT22;2377;51.734;8.950;2023-04-03T01:39:12;1.10;1.00
4727;DHT22;2377;51.734;8.950;2023-04-03T01:41:39;1.10;1.00
4727;DHT22;2377;51.734;8.950;2023-04-03T01:44:06;1.10;1.00
4727;DHT22;2377;51.734;8.950;2023-04-03T01:46:33;1.00;1.00
4727;DHT22;2377;51.734;8.950;2023-04-03T01:49:02;1.00;1.00
4727;DHT22;2377;51.734;8.950;2023-04-03T01:51:30;1.00;1.00
4727;DHT22;2377;51.734;8.950;2023-04-03T01:53:57;1.00;1.00
4727;DHT22;2377;51.734;8.950;2023-04-03T01:56:24;1.00;1.00
4727;DHT22;2377;51.734;8.950;2023-04-03T01:58:52;1.00;1.00
4727;DHT22;2377;51.734;8.950;2023-04-03T02:01:19;1.00;1.00
4727;DHT22;2377;51.734;8.950;2023-04-03T02:03:46;1.00;1.00
4727;DHT22;2377;51.734;8.950;2023-04-03T02:06:15;1.00;1.00
4727;DHT22;2377;51.734;8.950;2023-04-03T02:08:42;1.00;1.00
4727;DHT22;2377;51.734;8.950;2023-04-03T02:11:09;0.90;1.00
4727;DHT22;2377;51.734;8.950;2023-04-03T02:13:36;1.00;1.00
4727;DHT22;2377;51.734;8.950;2023-04-03T02:16:07;1.00;1.00
4727;DHT22;2377;51.734;8.950;2023-04-03T02:18:35;0.90;1.00
4727;DHT22;2377;51.734;8.950;2023-04-03T02:21:03;0.90;1.00
4727;DHT22;2377;51.734;8.950;2023-04-03T02:23:32;0.90;1.00
4727;DHT22;2377;51.734;8.950;2023-04-03T02:26:06;0.80;1.00
4727;DHT22;2377;51.734;8.950;2023-04-03T02:28:34;0.80;1.00
4727;DHT22;2377;51.734;8.950;2023-04-03T02:31:01;0.80;1.00
4727;DHT22;2377;51.734;8.950;2023-04-03T02:33:29;0.80;1.00
4727;DHT22;2377;51.734;8.950;2023-04-03T02:35:57;0.70;1.00
4727;DHT22;2377;51.734;8.950;2023-04-03T02:38:25;0.70;1.00
4727;DHT22;2377;51.734;8.950;2023-04-03T02:40:59;0.60;1.00
4727;DHT22;2377;51.734;8.950;2023-04-03T02:43:27;0.60;1.00
4727;DHT22;2377;51.734;8.950;2023-04-03T02:45:55;0.60;1.00
4727;DHT22;2377;51.734;8.950;2023-04-03T02:48:22;0.60;1.00
4727;DHT22;2377;51.734;8.950;2023-04-03T02:50:50;0.60;1.00
4727;DHT22;2377;51.734;8.950;2023-04-03T02:53:17;0.50;1.00
4727;DHT22;2377;51.734;8.950;2023-04-03T02:55:45;0.50;1.00
4727;DHT22;2377;51.734;8.950;2023-04-03T02:58:14;0.50;1.00
4727;DHT22;2377;51.734;8.950;2023-04-03T03:00:41;0.50;1.00
4727;DHT22;2377;51.734;8.950;2023-04-03T03:03:09;0.50;1.00
4727;DHT22;2377;51.734;8.950;2023-04-03T03:05:36;0.50;1.00
4727;DHT22;2377;51.734;8.950;2023-04-03T03:08:03;0.40;1.00
4727;DHT22;2377;51.734;8.950;2023-04-03T03:10:30;0.50;1.00
4727;DHT22;2377;51.734;8.950;2023-04-03T03:12:57;0.40;1.00
4727;DHT22;2377;51.734;8.950;2023-04-03T03:15:25;0.40;1.00
4727;DHT22;2377;51.734;8.950;2023-04-03T03:17:52;0.50;1.00
4727;DHT22;2377;51.734;8.950;2023-04-03T03:20:19;0.40;1.00
4727;DHT22;2377;51.734;8.950;2023-04-03T03:22:47;0.40;1.00
4727;DHT22;2377;51.734;8.950;2023-04-03T03:25:14;0.40;1.00
4727;DHT22;2377;51.734;8.950;2023-04-03T03:27:41;0.30;1.00
4727;DHT22;2377;51.734;8.950;2023-04-03T03:30:08;0.30;1.00
4727;DHT22;2377;51.734;8.950;2023-04-03T03:32:37;0.30;1.00
4727;DHT22;2377;51.734;8.950;2023-04-03T03:35:05;0.30;1.00
4727;DHT22;2377;51.734;8.950;2023-04-03T03:37:32;0.30;1.00
4727;DHT22;2377;51.734;8.950;2023-04-03T03:39:59;0.20;1.00
4727;DHT22;2377;51.734;8.950;2023-04-03T03:42:27;0.20;1.00
4727;DHT22;2377;51.734;8.950;2023-04-03T03:44:54;0.20;1.00
4727;DHT22;2377;51.734;8.950;2023-04-03T03:47:21;0.20;1.00
4727;DHT22;2377;51.734;8.950;2023-04-03T03:49:49;0.10;1.00
4727;DHT22;2377;51.734;8.950;2023-04-03T03:52:23;0.10;1.00
4727;DHT22;2377;51.734;8.950;2023-04-03T03:54:50;0.10;1.00
4727;DHT22;2377;51.734;8.950;2023-04-03T03:57:18;0.10;1.00
4727;DHT22;2377;51.734;8.950;2023-04-03T03:59:45;0.10;1.00
4727;DHT22;2377;51.734;8.950;2023-04-03T04:02:13;0.10;1.00
4727;DHT22;2377;51.734;8.950;2023-04-03T04:04:40;0.10;1.00
4727;DHT22;2377;51.734;8.950;2023-04-03T04:07:08;0.10;1.00
4727;DHT22;2377;51.734;8.950;2023-04-03T04:09:35;0.10;1.00
4727;DHT22;2377;51.734;8.950;2023-04-03T04:12:02;0.10;1.00
4727;DHT22;2377;51.734;8.950;2023-04-03T04:14:30;0.10;1.00
4727;DHT22;2377;51.734;8.950;2023-04-03T04:16:57;0.00;1.00
4727;DHT22;2377;51.734;8.950;2023-04-03T04:19:24;0.00;1.00
4727;DHT22;2377;51.734;8.950;2023-04-03T04:21:51;0.00;1.00
4727;DHT22;2377;51.734;8.950;2023-04-03T04:24:19;0.00;1.00
4727;DHT22;2377;51.734;8.950;2023-04-03T04:26:48;0.00;1.00
4727;DHT22;2377;51.734;8.950;2023-04-03T04:29:15;0.00;1.00
4727;DHT22;2377;51.734;8.950;2023-04-03T04:31:42;0.00;1.00
4727;DHT22;2377;51.734;8.950;2023-04-03T04:34:09;0.00;1.00
4727;DHT22;2377;51.734;8.950;2023-04-03T04:36:38;0.00;1.00
4727;DHT22;2377;51.734;8.950;2023-04-03T04:39:05;0.00;1.00
4727;DHT22;2377;51.734;8.950;2023-04-03T04:41:34;0.00;1.00
4727;DHT22;2377;51.734;8.950;2023-04-03T04:44:01;-0.10;1.00
4727;DHT22;2377;51.734;8.950;2023-04-03T04:46:28;0.00;1.00
4727;DHT22;2377;51.734;8.950;2023-04-03T04:48:55;0.00;1.00
4727;DHT22;2377;51.734;8.950;2023-04-03T04:51:22;-0.10;1.00
4727;DHT22;2377;51.734;8.950;2023-04-03T04:53:49;-0.10;1.00
4727;DHT22;2377;51.734;8.950;2023-04-03T04:56:16;-0.10;1.00
4727;DHT22;2377;51.734;8.950;2023-04-03T04:58:44;-0.10;1.00
4727;DHT22;2377;51.734;8.950;2023-04-03T05:01:12;-0.10;1.00
4727;DHT22;2377;51.734;8.950;2023-04-03T05:03:39;-0.10;1.00
4727;DHT22;2377;51.734;8.950;2023-04-03T05:06:06;-0.10;1.00
4727;DHT22;2377;51.734;8.950;2023-04-03T05:08:33;-0.10;1.00
4727;DHT22;2377;51.734;8.950;2023-04-03T05:11:00;-0.20;4.20
4727;DHT22;2377;51.734;8.950;2023-04-03T05:13:27;-0.20;3.70
4727;DHT22;2377;51.734;8.950;2023-04-03T05:15:56;-0.10;2.80
4727;DHT22;2377;51.734;8.950;2023-04-03T05:18:23;-0.20;7.10
4727;DHT22;2377;51.734;8.950;2023-04-03T05:20:50;-0.10;4.30
4727;DHT22;2377;51.734;8.950;2023-04-03T05:23:17;-0.20;7.30
4727;DHT22;2377;51.734;8.950;2023-04-03T05:25:45;-0.20;8.60
4727;DHT22;2377;51.734;8.950;2023-04-03T05:28:12;-0.10;8.00
4727;DHT22;2377;51.734;8.950;2023-04-03T05:30:39;-0.20;7.20
4727;DHT22;2377;51.734;8.950;2023-04-03T05:33:08;-0.20;10.30
4727;DHT22;2377;51.734;8.950;2023-04-03T05:35:36;-0.10;7.10
4727;DHT22;2377;51.734;8.950;2023-04-03T05:38:04;-0.20;8.40
4727;DHT22;2377;51.734;8.950;2023-04-03T05:40:31;-0.10;10.40
4727;DHT22;2377;51.734;8.950;2023-04-03T05:42:58;-0.10;11.50
4727;DHT22;2377;51.734;8.950;2023-04-03T05:45:25;-0.10;10.00
4727;DHT22;2377;51.734;8.950;2023-04-03T05:47:53;-0.10;14.10
4727;DHT22;2377;51.734;8.950;2023-04-03T05:50:21;0.00;11.90
4727;DHT22;2377;51.734;8.950;2023-04-03T05:52:49;0.00;9.60
4727;DHT22;2377;51.734;8.950;2023-04-03T05:55:19;0.00;14.10
4727;DHT22;2377;51.734;8.950;2023-04-03T05:57:46;0.10;6.70
4727;DHT22;2377;51.734;8.950;2023-04-03T06:00:14;0.10;1.00
4727;DHT22;2377;51.734;8.950;2023-04-03T06:02:42;0.10;1.00
4727;DHT22;2377;51.734;8.950;2023-04-03T06:05:09;0.20;1.50
4727;DHT22;2377;51.734;8.950;2023-04-03T06:07:40;0.30;1.00
4727;DHT22;2377;51.734;8.950;2023-04-03T06:10:08;0.30;1.90
4727;DHT22;2377;51.734;8.950;2023-04-03T06:12:37;0.30;1.00
4727;DHT22;2377;51.734;8.950;2023-04-03T06:15:05;0.40;1.00
4727;DHT22;2377;51.734;8.950;2023-04-03T06:17:33;0.50;1.00
4727;DHT22;2377;51.734;8.950;2023-04-03T06:20:00;0.50;1.00
4727;DHT22;2377;51.734;8.950;2023-04-03T06:22:29;0.60;1.00
4727;DHT22;2377;51.734;8.950;2023-04-03T06:24:57;0.60;1.00
4727;DHT22;2377;51.734;8.950;2023-04-03T06:27:24;0.70;1.00
4727;DHT22;2377;51.734;8.950;2023-04-03T06:29:52;0.80;1.00
4727;DHT22;2377;51.734;8.950;2023-04-03T06:32:19;0.80;1.00
4727;DHT22;2377;51.734;8.950;2023-04-03T06:34:46;1.00;1.00
4727;DHT22;2377;51.734;8.950;2023-04-03T06:37:15;1.00;1.00
4727;DHT22;2377;51.734;8.950;2023-04-03T06:39:43;1.10;1.00
4727;DHT22;2377;51.734;8.950;2023-04-03T06:42:12;1.10;1.00
4727;DHT22;2377;51.734;8.950;2023-04-03T06:44:39;1.20;1.00
4727;DHT22;2377;51.734;8.950;2023-04-03T06:47:06;1.20;1.00
4727;DHT22;2377;51.734;8.950;2023-04-03T06:49:34;1.30;1.00
4727;DHT22;2377;51.734;8.950;2023-04-03T06:52:02;1.30;1.00
4727;DHT22;2377;51.734;8.950;2023-04-03T06:54:30;1.30;1.00
4727;DHT22;2377;51.734;8.950;2023-04-03T06:56:57;1.40;1.00
4727;DHT22;2377;51.734;8.950;2023-04-03T06:59:25;1.40;1.00
4727;DHT22;2377;51.734;8.950;2023-04-03T07:01:53;1.50;1.00
4727;DHT22;2377;51.734;8.950;2023-04-03T07:04:20;1.50;1.00
4727;DHT22;2377;51.734;8.950;2023-04-03T07:06:47;1.60;1.00
4727;DHT22;2377;51.734;8.950;2023-04-03T07:09:14;1.60;1.00
4727;DHT22;2377;51.734;8.950;2023-04-03T07:11:42;1.80;1.00
4727;DHT22;2377;51.734;8.950;2023-04-03T07:14:09;1.80;1.00
4727;DHT22;2377;51.734;8.950;2023-04-03T07:16:37;1.80;1.00
4727;DHT22;2377;51.734;8.950;2023-04-03T07:19:04;1.90;1.00
4727;DHT22;2377;51.734;8.950;2023-04-03T07:21:31;2.00;1.00
4727;DHT22;2377;51.734;8.950;2023-04-03T07:23:58;2.10;1.00
4727;DHT22;2377;51.734;8.950;2023-04-03T07:26:26;2.10;1.00
4727;DHT22;2377;51.734;8.950;2023-04-03T07:28:53;2.20;1.00
4727;DHT22;2377;51.734;8.950;2023-04-03T07:31:20;2.30;1.00
4727;DHT22;2377;51.734;8.950;2023-04-03T07:33:48;2.50;1.00
4727;DHT22;2377;51.734;8.950;2023-04-03T07:36:17;2.60;1.00
4727;DHT22;2377;51.734;8.950;2023-04-03T07:38:46;2.80;1.00
4727;DHT22;2377;51.734;8.950;2023-04-03T07:41:15;3.00;1.00
4727;DHT22;2377;51.734;8.950;2023-04-03T07:43:44;3.10;1.00
4727;DHT22;2377;51.734;8.950;2023-04-03T07:46:12;3.30;1.00
4727;DHT22;2377;51.734;8.950;2023-04-03T07:48:39;3.50;1.00
4727;DHT22;2377;51.734;8.950;2023-04-03T07:51:07;3.50;1.00
4727;DHT22;2377;51.734;8.950;2023-04-03T07:53:34;3.60;1.00
4727;DHT22;2377;51.734;8.950;2023-04-03T07:56:01;3.60;1.00
4727;DHT22;2377;51.734;8.950;2023-04-03T07:58:29;3.60;1.00
4727;DHT22;2377;51.734;8.950;2023-04-03T08:00:56;3.80;1.00
4727;DHT22;2377;51.734;8.950;2023-04-03T08:03:23;3.80;1.00
4727;DHT22;2377;51.734;8.950;2023-04-03T08:05:51;4.00;1.00
4727;DHT22;2377;51.734;8.950;2023-04-03T08:08:21;4.00;1.00
4727;DHT22;2377;51.734;8.950;2023-04-03T08:10:49;4.10;1.00
4727;DHT22;2377;51.734;8.950;2023-04-03T08:13:17;4.20;1.00
4727;DHT22;2377;51.734;8.950;2023-04-03T08:15:44;4.30;1.00
4727;DHT22;2377;51.734;8.950;2023-04-03T08:18:13;4.40;1.00
4727;DHT22;2377;51.734;8.950;2023-04-03T08:20:40;4.50;1.00
4727;DHT22;2377;51.734;8.950;2023-04-03T08:23:08;4.60;1.00
4727;DHT22;2377;51.734;8.950;2023-04-03T08:25:39;4.60;1.00
4727;DHT22;2377;51.734;8.950;2023-04-03T08:28:07;4.80;1.00
4727;DHT22;2377;51.734;8.950;2023-04-03T08:30:34;4.80;1.00
4727;DHT22;2377;51.734;8.950;2023-04-03T08:33:03;4.80;1.00
4727;DHT22;2377;51.734;8.950;2023-04-03T08:35:31;5.00;1.00
4727;DHT22;2377;51.734;8.950;2023-04-03T08:37:58;5.00;1.00
4727;DHT22;2377;51.734;8.950;2023-04-03T08:40:26;5.10;1.00
4727;DHT22;2377;51.734;8.950;2023-04-03T08:43:04;5.10;1.00
4727;DHT22;2377;51.734;8.950;2023-04-03T08:45:50;5.10;1.00
4727;DHT22;2377;51.734;8.950;2023-04-03T08:48:25;5.10;1.00
4727;DHT22;2377;51.734;8.950;2023-04-03T08:50:59;5.10;1.00
4727;DHT22;2377;51.734;8.950;2023-04-03T08:53:32;5.40;1.00
4727;DHT22;2377;51.734;8.950;2023-04-03T08:56:07;5.60;1.00
4727;DHT22;2377;51.734;8.950;2023-04-03T08:58:41;5.80;1.00
4727;DHT22;2377;51.734;8.950;2023-04-03T09:01:18;5.80;1.00
4727;DHT22;2377;51.734;8.950;2023-04-03T09:03:47;5.90;1.00
4727;DHT22;2377;51.734;8.950;2023-04-03T09:06:17;6.00;1.00
4727;DHT22;2377;51.734;8.950;2023-04-03T09:08:51;6.10;1.00
4727;DHT22;2377;51.734;8.950;2023-04-03T09:11:39;6.40;1.00
4727;DHT22;2377;51.734;8.950;2023-04-03T09:14:19;6.30;1.00
4727;DHT22;2377;51.734;8.950;2023-04-03T09:16:55;6.30;1.00
4727;DHT22;2377;51.734;8.950;2023-04-03T09:19:32;6.40;1.00
4727;DHT22;2377;51.734;8.950;2023-04-03T09:22:16;6.50;1.00
4727;DHT22;2377;51.734;8.950;2023-04-03T09:24:52;6.50;1.00
4727;DHT22;2377;51.734;8.950;2023-04-03T09:27:24;6.50;1.00
4727;DHT22;2377;51.734;8.950;2023-04-03T09:29:54;6.60;1.00
4727;DHT22;2377;51.734;8.950;2023-04-03T09:32:27;6.70;1.00
4727;DHT22;2377;51.734;8.950;2023-04-03T09:35:01;6.80;1.00
4727;DHT22;2377;51.734;8.950;2023-04-03T09:37:39;6.90;1.00
4727;DHT22;2377;51.734;8.950;2023-04-03T09:40:32;6.80;1.00
4727;DHT22;2377;51.734;8.950;2023-04-03T09:43:08;6.90;1.00
4727;DHT22;2377;51.734;8.950;2023-04-03T09:45:49;7.00;99.90
4727;DHT22;2377;51.734;8.950;2023-04-03T09:48:20;7.00;1.00
4727;DHT22;2377;51.734;8.950;2023-04-03T09:50:59;6.90;1.00
4727;DHT22;2377;51.734;8.950;2023-04-03T09:53:32;6.80;1.00
4727;DHT22;2377;51.734;8.950;2023-04-03T09:56:04;6.80;99.90
4727;DHT22;2377;51.734;8.950;2023-04-03T09:58:48;6.80;99.90
4727;DHT22;2377;51.734;8.950;2023-04-03T10:01:27;6.80;1.00
4727;DHT22;2377;51.734;8.950;2023-04-03T10:04:08;6.80;1.00
4727;DHT22;2377;51.734;8.950;2023-04-03T10:06:39;6.90;1.00
4727;DHT22;2377;51.734;8.950;2023-04-03T10:09:18;7.00;1.00
4727;DHT22;2377;51.734;8.950;2023-04-03T10:12:00;7.10;1.00
4727;DHT22;2377;51.734;8.950;2023-04-03T10:14:31;7.30;1.00
4727;DHT22;2377;51.734;8.950;2023-04-03T10:17:06;7.30;1.00
4727;DHT22;2377;51.734;8.950;2023-04-03T10:19:46;7.30;1.00
4727;DHT22;2377;51.734;8.950;2023-04-03T10:22:25;7.50;1.00
4727;DHT22;2377;51.734;8.950;2023-04-03T10:25:11;7.30;1.00
4727;DHT22;2377;51.734;8.950;2023-04-03T10:27:48;7.30;1.00
4727;DHT22;2377;51.734;8.950;2023-04-03T10:30:31;6.90;1.00
4727;DHT22;2377;51.734;8.950;2023-04-03T10:33:23;6.60;1.00
4727;DHT22;2377;51.734;8.950;2023-04-03T10:36:10;6.50;1.00
4727;DHT22;2377;51.734;8.950;2023-04-03T10:38:51;6.20;1.00
4727;DHT22;2377;51.734;8.950;2023-04-03T10:41:30;6.00;1.00
4727;DHT22;2377;51.734;8.950;2023-04-03T10:44:15;6.00;1.00
4727;DHT22;2377;51.734;8.950;2023-04-03T10:46:49;6.00;1.00
4727;DHT22;2377;51.734;8.950;2023-04-03T10:49:31;6.20;1.00
4727;DHT22;2377;51.734;8.950;2023-04-03T10:52:14;6.50;1.00
4727;DHT22;2377;51.734;8.950;2023-04-03T10:54:54;6.50;1.00
4727;DHT22;2377;51.734;8.950;2023-04-03T10:57:30;6.50;1.00
4727;DHT22;2377;51.734;8.950;2023-04-03T11:00:00;6.60;1.00
4727;DHT22;2377;51.734;8.950;2023-04-03T11:02:33;6.80;1.00
4727;DHT22;2377;51.734;8.950;2023-04-03T11:05:07;6.80;1.00
4727;DHT22;2377;51.734;8.950;2023-04-03T11:07:47;6.80;1.00
4727;DHT22;2377;51.734;8.950;2023-04-03T11:10:31;7.00;1.00
4727;DHT22;2377;51.734;8.950;2023-04-03T11:13:10;7.30;1.00
4727;DHT22;2377;51.734;8.950;2023-04-03T11:15:42;7.50;1.00
4727;DHT22;2377;51.734;8.950;2023-04-03T11:18:14;7.50;1.00
4727;DHT22;2377;51.734;8.950;2023-04-03T11:20:53;7.30;1.00
4727;DHT22;2377;51.734;8.950;2023-04-03T11:23:31;7.10;1.00
4727;DHT22;2377;51.734;8.950;2023-04-03T11:26:12;7.10;1.00
4727;DHT22;2377;51.734;8.950;2023-04-03T11:28:40;7.00;1.00
4727;DHT22;2377;51.734;8.950;2023-04-03T11:31:28;6.80;1.00
4727;DHT22;2377;51.734;8.950;2023-04-03T11:34:13;6.60;1.00
4727;DHT22;2377;51.734;8.950;2023-04-03T11:36:53;6.50;1.00
4727;DHT22;2377;51.734;8.950;2023-04-03T11:39:26;6.70;1.00
4727;DHT22;2377;51.734;8.950;2023-04-03T11:42:15;7.00;1.00
4727;DHT22;2377;51.734;8.950;2023-04-03T11:44:49;7.00;1.00
4727;DHT22;2377;51.734;8.950;2023-04-03T11:47:44;7.00;1.00
4727;DHT22;2377;51.734;8.950;2023-04-03T11:53:32;6.80;1.00
4727;DHT22;2377;51.734;8.950;2023-04-03T11:56:29;6.60;1.00
4727;DHT22;2377;51.734;8.950;2023-04-03T11:59:22;6.60;1.00
4727;DHT22;2377;51.734;8.950;2023-04-03T12:01:51;6.70;1.00
4727;DHT22;2377;51.734;8.950;2023-04-03T12:04:21;6.70;1.00
4727;DHT22;2377;51.734;8.950;2023-04-03T12:10:12;6.80;1.00
4727;DHT22;2377;51.734;8.950;2023-04-03T12:12:58;7.00;1.00
4727;DHT22;2377;51.734;8.950;2023-04-03T12:15:49;7.00;1.00
4727;DHT22;2377;51.734;8.950;2023-04-03T12:18:39;6.80;1.00
4727;DHT22;2377;51.734;8.950;2023-04-03T12:21:10;7.00;1.00
4727;DHT22;2377;51.734;8.950;2023-04-03T12:24:03;7.30;1.00
4727;DHT22;2377;51.734;8.950;2023-04-03T12:26:41;7.20;1.00
4727;DHT22;2377;51.734;8.950;2023-04-03T12:29:16;6.90;1.00
4727;DHT22;2377;51.734;8.950;2023-04-03T12:31:56;6.80;1.00
4727;DHT22;2377;51.734;8.950;2023-04-03T12:34:49;6.60;1.00
4727;DHT22;2377;51.734;8.950;2023-04-03T12:37:44;6.50;1.00
4727;DHT22;2377;51.734;8.950;2023-04-03T12:40:26;6.50;1.00
4727;DHT22;2377;51.734;8.950;2023-04-03T12:43:33;6.30;1.00
4727;DHT22;2377;51.734;8.950;2023-04-03T12:46:13;6.20;1.00
4727;DHT22;2377;51.734;8.950;2023-04-03T12:48:48;6.30;1.00
4727;DHT22;2377;51.734;8.950;2023-04-03T12:51:19;6.30;1.00
4727;DHT22;2377;51.734;8.950;2023-04-03T12:53:56;6.60;1.00
4727;DHT22;2377;51.734;8.950;2023-04-03T12:56:41;6.80;1.00
4727;DHT22;2377;51.734;8.950;2023-04-03T12:59:16;7.10;1.00
4727;DHT22;2377;51.734;8.950;2023-04-03T13:01:53;7.30;1.00
4727;DHT22;2377;51.734;8.950;2023-04-03T13:04:21;7.30;1.00
4727;DHT22;2377;51.734;8.950;2023-04-03T13:06:49;7.10;1.00
4727;DHT22;2377;51.734;8.950;2023-04-03T13:09:20;7.10;1.00
4727;DHT22;2377;51.734;8.950;2023-04-03T13:11:50;7.00;1.00
4727;DHT22;2377;51.734;8.950;2023-04-03T13:14:24;7.00;1.00
4727;DHT22;2377;51.734;8.950;2023-04-03T13:16:56;6.80;1.00
4727;DHT22;2377;51.734;8.950;2023-04-03T13:19:25;6.70;1.00
4727;DHT22;2377;51.734;8.950;2023-04-03T13:21:59;6.60;1.00
4727;DHT22;2377;51.734;8.950;2023-04-03T13:24:33;6.60;1.00
4727;DHT22;2377;51.734;8.950;2023-04-03T13:27:06;6.70;1.00
4727;DHT22;2377;51.734;8.950;2023-04-03T13:29:36;6.70;1.00
4727;DHT22;2377;51.734;8.950;2023-04-03T13:32:05;6.80;1.00
4727;DHT22;2377;51.734;8.950;2023-04-03T13:34:37;7.00;1.00
4727;DHT22;2377;51.734;8.950;2023-04-03T13:37:11;7.10;1.00
4727;DHT22;2377;51.734;8.950;2023-04-03T13:39:57;7.10;1.00
4727;DHT22;2377;51.734;8.950;2023-04-03T13:42:30;7.10;1.00
4727;DHT22;2377;51.734;8.950;2023-04-03T13:45:23;7.10;1.00
4727;DHT22;2377;51.734;8.950;2023-04-03T13:48:06;7.30;1.00
4727;DHT22;2377;51.734;8.950;2023-04-03T13:50:55;7.50;1.00
4727;DHT22;2377;51.734;8.950;2023-04-03T13:53:26;7.30;1.00
4727;DHT22;2377;51.734;8.950;2023-04-03T13:55:59;7.40;1.00
4727;DHT22;2377;51.734;8.950;2023-04-03T13:58:33;7.50;1.00
4727;DHT22;2377;51.734;8.950;2023-04-03T14:01:08;7.50;1.00
4727;DHT22;2377;51.734;8.950;2023-04-03T14:03:42;7.60;1.00
4727;DHT22;2377;51.734;8.950;2023-04-03T14:06:13;7.60;1.00
4727;DHT22;2377;51.734;8.950;2023-04-03T14:08:42;7.60;1.00
4727;DHT22;2377;51.734;8.950;2023-04-03T14:11:13;7.60;99.90
4727;DHT22;2377;51.734;8.950;2023-04-03T14:13:43;7.50;1.00
4727;DHT22;2377;51.734;8.950;2023-04-03T14:16:18;7.30;1.00
4727;DHT22;2377;51.734;8.950;2023-04-03T14:18:48;7.10;1.00
4727;DHT22;2377;51.734;8.950;2023-04-03T14:21:18;7.00;1.00
4727;DHT22;2377;51.734;8.950;2023-04-03T14:23:47;6.80;1.00
4727;DHT22;2377;51.734;8.950;2023-04-03T14:26:17;6.80;1.00
4727;DHT22;2377;51.734;8.950;2023-04-03T14:28:49;6.90;1.00
4727;DHT22;2377;51.734;8.950;2023-04-03T14:31:19;7.00;1.00
4727;DHT22;2377;51.734;8.950;2023-04-03T14:33:47;7.10;1.00
4727;DHT22;2377;51.734;8.950;2023-04-03T14:36:17;7.30;1.00
4727;DHT22;2377;51.734;8.950;2023-04-03T14:38:46;7.40;1.00
4727;DHT22;2377;51.734;8.950;2023-04-03T14:41:17;7.60;1.00
4727;DHT22;2377;51.734;8.950;2023-04-03T14:43:46;7.50;1.00
4727;DHT22;2377;51.734;8.950;2023-04-03T14:46:16;7.60;1.00
4727;DHT22;2377;51.734;8.950;2023-04-03T14:48:48;7.60;1.00
4727;DHT22;2377;51.734;8.950;2023-04-03T14:51:15;7.50;1.00
4727;DHT22;2377;51.734;8.950;2023-04-03T14:53:43;7.40;1.00
4727;DHT22;2377;51.734;8.950;2023-04-03T14:56:13;7.30;1.00
4727;DHT22;2377;51.734;8.950;2023-04-03T14:58:42;7.10;1.00
4727;DHT22;2377;51.734;8.950;2023-04-03T15:01:10;7.00;1.00
4727;DHT22;2377;51.734;8.950;2023-04-03T15:03:41;6.90;1.00
4727;DHT22;2377;51.734;8.950;2023-04-03T15:06:09;6.80;1.00
4727;DHT22;2377;51.734;8.950;2023-04-03T15:08:38;6.60;1.00
4727;DHT22;2377;51.734;8.950;2023-04-03T15:11:06;6.70;1.00
4727;DHT22;2377;51.734;8.950;2023-04-03T15:13:35;6.90;1.00
4727;DHT22;2377;51.734;8.950;2023-04-03T15:16:03;7.00;1.00
4727;DHT22;2377;51.734;8.950;2023-04-03T15:18:35;7.10;1.00
4727;DHT22;2377;51.734;8.950;2023-04-03T15:21:05;7.00;1.00
4727;DHT22;2377;51.734;8.950;2023-04-03T15:23:35;7.00;1.00
4727;DHT22;2377;51.734;8.950;2023-04-03T15:26:03;6.80;1.00
4727;DHT22;2377;51.734;8.950;2023-04-03T15:28:34;6.60;1.00
4727;DHT22;2377;51.734;8.950;2023-04-03T15:31:03;6.50;1.00
4727;DHT22;2377;51.734;8.950;2023-04-03T15:33:31;6.60;1.00
4727;DHT22;2377;51.734;8.950;2023-04-03T15:35:59;6.70;1.00
4727;DHT22;2377;51.734;8.950;2023-04-03T15:38:28;6.80;1.00
4727;DHT22;2377;51.734;8.950;2023-04-03T15:40:55;6.80;1.00
4727;DHT22;2377;51.734;8.950;2023-04-03T15:43:24;6.90;1.00
4727;DHT22;2377;51.734;8.950;2023-04-03T15:45:51;6.90;1.00
4727;DHT22;2377;51.734;8.950;2023-04-03T15:48:18;6.90;1.00
4727;DHT22;2377;51.734;8.950;2023-04-03T15:50:45;7.00;1.00
4727;DHT22;2377;51.734;8.950;2023-04-03T15:53:12;7.00;1.00
4727;DHT22;2377;51.734;8.950;2023-04-03T15:55:42;6.90;1.00
4727;DHT22;2377;51.734;8.950;2023-04-03T15:58:10;6.80;1.00
4727;DHT22;2377;51.734;8.950;2023-04-03T16:00:37;6.70;1.00
4727;DHT22;2377;51.734;8.950;2023-04-03T16:03:08;6.60;1.00
4727;DHT22;2377;51.734;8.950;2023-04-03T16:05:38;6.60;1.00
4727;DHT22;2377;51.734;8.950;2023-04-03T16:08:07;6.60;1.00
4727;DHT22;2377;51.734;8.950;2023-04-03T16:10:34;6.60;1.00
4727;DHT22;2377;51.734;8.950;2023-04-03T16:13:03;6.50;1.00
4727;DHT22;2377;51.734;8.950;2023-04-03T16:15:32;6.50;1.00
4727;DHT22;2377;51.734;8.950;2023-04-03T16:18:01;6.60;1.00
4727;DHT22;2377;51.734;8.950;2023-04-03T16:20:29;6.60;1.00
4727;DHT22;2377;51.734;8.950;2023-04-03T16:22:58;6.60;1.00
4727;DHT22;2377;51.734;8.950;2023-04-03T16:25:27;6.70;1.00
4727;DHT22;2377;51.734;8.950;2023-04-03T16:27:56;6.70;1.00
4727;DHT22;2377;51.734;8.950;2023-04-03T16:30:24;6.70;1.00
4727;DHT22;2377;51.734;8.950;2023-04-03T16:32:52;6.60;1.00
4727;DHT22;2377;51.734;8.950;2023-04-03T16:35:21;6.60;1.00
4727;DHT22;2377;51.734;8.950;2023-04-03T16:37:48;6.50;1.00
4727;DHT22;2377;51.734;8.950;2023-04-03T16:40:15;6.50;1.00
4727;DHT22;2377;51.734;8.950;2023-04-03T16:42:42;6.60;1.00
4727;DHT22;2377;51.734;8.950;2023-04-03T16:45:10;6.60;1.00
4727;DHT22;2377;51.734;8.950;2023-04-03T16:47:38;6.50;1.00
4727;DHT22;2377;51.734;8.950;2023-04-03T16:50:06;6.50;1.00
4727;DHT22;2377;51.734;8.950;2023-04-03T16:52:34;6.60;1.00
4727;DHT22;2377;51.734;8.950;2023-04-03T16:55:02;6.60;1.00
4727;DHT22;2377;51.734;8.950;2023-04-03T16:57:29;6.60;1.00
4727;DHT22;2377;51.734;8.950;2023-04-03T16:59:56;6.60;1.00
4727;DHT22;2377;51.734;8.950;2023-04-03T17:02:23;6.50;1.00
4727;DHT22;2377;51.734;8.950;2023-04-03T17:04:52;6.40;1.00
4727;DHT22;2377;51.734;8.950;2023-04-03T17:07:20;6.30;1.00